Aérodrome :
LOGIN :

S'inscrire | Disclaimer

   EN    FR    IT 

 










Légende :    VFR   VFR Marginal   IFR   IFR Intensif   IFR Très Intensif
Visi : 
Plafond : 
>= 8 km
>= 3000ft
5 à 8 km
1000 à 3000 ft
1500m à 5 km
500 à 1000 ft
800 à 1500m
200 à 500 ft
< 800m
< 200 ft
Symboles :   Orages  Brouillard  Fortes neiges  Fortes précipitations  Vent > 20 kt
SIGMETs :   Divers  Orages  Givrage  Turbulence  Onde Orograph.  Cendres Volcan.






- Altitude de l'aérodrome : 218 ft
- Code IATA : LBG


LFPB - Paris / Le Bourget

DERNIER METAR :
  • 182300Z AUTO 20012KT 9999 BKN033 OVC040 06/02 Q1022 TEMPO 4000 -RADZ BKN014

METARs EXPIRÉS :
  • 182230Z AUTO 20011KT 9999 OVC041 06/02 Q1022 TEMPO 4000 -RADZ BKN014
  • 182200Z AUTO 20010KT 9999 FEW028 OVC043 06/02 Q1023 TEMPO 4000 -RADZ BKN014
  • 182130Z AUTO 20011KT 9999 OVC045 06/02 Q1023 TEMPO 4000 -RADZ BKN014
  • 182100Z AUTO 20010KT 9999 OVC046 06/02 Q1023 NOSIG
  • 182030Z AUTO 20009KT 9999 SCT041 OVC048 06/02 Q1023 NOSIG

TAF TAF LFPB
Valide du 18 à 18h jusqu'au 19 à 18h UTC


181700Z 1818/1918 21010KT 9999 FEW040
PROB40
TEMPO 1823/1903 4000 -RADZ BKN014
BECMG 1903/1905 21015G25KT BKN012
TEMPO 1905/1909 4000 RA BKN009
BECMG 1909/1912 SCT019
ATIS : +33 1 48 62 43 92



MET'MAP, la Météo Aéronautique d'un coup d'oeil ! - Copyright ORBIFLY Décembre 2007 - Disclaimer

ORBIFLY MET'MAP TEAM :

Programmation & Développement : Alexandra Zaïnal
Sur une idée originale de : Baudouin d'Aumeries
Assistance à la programmation : Marc-Olivier Méhu
Soutien technique & logistique : Manuel Goepfert

Contact : metmap@orbifly.com




SOURCES & CREDITS :

   NOAA